Time;durP1;ratioP1;P1;durP2;ratioP2;P2;SDS_P1;SDS_P2;PMS_P1;PMS_P2;Temp;Humidity;BMP_temperature;BMP_pressure;BME280_temperature;BME280_humidity;BME280_pressure;Samples;Min_cycle;Max_cycle;Signal;HPM_P1;HPM_P2
2023/05/25 00:02:07;;;;;;;17.97;8.00;;;8.80;99.90;;;;;;5030138;28;21039;-73
2023/05/25 00:04:34;;;;;;;13.10;7.70;;;8.80;99.90;;;;;;5038649;28;20515;-73
2023/05/25 00:07:00;;;;;;;16.27;6.77;;;8.80;99.90;;;;;;5030522;28;20495;-74
2023/05/25 00:09:29;;;;;;;15.53;7.67;;;8.80;99.90;;;;;;5030285;28;20934;-74
2023/05/25 00:11:57;;;;;;;15.17;8.20;;;8.80;99.90;;;;;;5030483;28;20465;-73
2023/05/25 00:14:23;;;;;;;14.47;8.10;;;8.70;99.90;;;;;;5041979;28;20460;-74
2023/05/25 00:16:50;;;;;;;18.50;7.97;;;8.70;99.90;;;;;;5041678;28;20465;-73
2023/05/25 00:19:17;;;;;;;12.60;7.90;;;8.60;99.90;;;;;;5037808;28;21012;-73
2023/05/25 00:21:47;;;;;;;15.73;7.57;;;8.50;99.90;;;;;;5034249;28;20488;-73
2023/05/25 00:24:13;;;;;;;13.90;7.90;;;8.60;99.90;;;;;;5038120;28;20799;-74
2023/05/25 00:26:41;;;;;;;22.60;8.50;;;8.60;99.90;;;;;;5030345;28;20457;-74
2023/05/25 00:29:08;;;;;;;18.80;8.13;;;8.50;99.90;;;;;;5030189;28;20506;-74
2023/05/25 00:31:35;;;;;;;20.47;8.17;;;8.50;99.90;;;;;;5030229;28;20466;-73
2023/05/25 00:34:02;;;;;;;15.70;7.93;;;8.50;99.90;;;;;;5030042;28;20450;-73
2023/05/25 00:36:28;;;;;;;18.63;8.77;;;8.50;99.90;;;;;;5030297;28;20465;-73
2023/05/25 00:38:55;;;;;;;20.27;8.17;;;8.40;99.90;;;;;;5035539;28;20942;-73
2023/05/25 00:41:23;;;;;;;17.13;8.73;;;8.40;99.90;;;;;;5029977;28;20490;-73
2023/05/25 00:43:51;;;;;;;16.17;8.73;;;8.40;99.90;;;;;;5029773;28;20455;-73
2023/05/25 00:46:17;;;;;;;20.73;8.50;;;8.40;99.90;;;;;;5038456;28;20524;-73
2023/05/25 00:48:44;;;;;;;26.53;10.00;;;8.40;99.90;;;;;;5041151;28;20476;-74
2023/05/25 00:51:12;;;;;;;18.40;9.30;;;8.40;99.90;;;;;;5038240;28;20473;-73
2023/05/25 00:53:38;;;;;;;19.50;9.20;;;8.30;99.90;;;;;;5033842;28;20442;-74
2023/05/25 00:56:12;;;;;;;24.77;9.07;;;8.30;99.90;;;;;;5033654;28;20445;-73
2023/05/25 00:58:41;;;;;;;20.00;8.90;;;8.30;99.90;;;;;;5041817;28;20537;-74
2023/05/25 01:01:11;;;;;;;22.60;9.20;;;8.30;99.90;;;;;;5033639;28;20497;-74
2023/05/25 01:03:41;;;;;;;18.60;9.70;;;8.30;99.90;;;;;;5040107;28;20453;-73
2023/05/25 01:06:14;;;;;;;19.23;9.00;;;8.30;99.90;;;;;;5036787;28;20524;-74
2023/05/25 01:08:47;;;;;;;24.20;9.20;;;8.30;99.90;;;;;;5041934;28;20523;-73
2023/05/25 01:11:15;;;;;;;19.13;10.10;;;8.30;99.90;;;;;;5033447;28;20871;-73
2023/05/25 01:13:42;;;;;;;28.50;8.93;;;8.20;99.90;;;;;;5033415;28;20954;-73
2023/05/25 01:16:11;;;;;;;27.67;11.50;;;8.20;99.90;;;;;;5041075;28;20859;-74
2023/05/25 01:18:40;;;;;;;23.03;9.27;;;8.20;99.90;;;;;;5039477;28;20499;-73
2023/05/25 01:21:16;;;;;;;25.40;9.87;;;8.20;99.90;;;;;;5035328;28;20500;-74
2023/05/25 01:23:51;;;;;;;22.97;9.20;;;8.20;99.90;;;;;;5033281;28;20818;-74
2023/05/25 01:26:19;;;;;;;25.90;9.90;;;8.20;99.90;;;;;;5033457;28;20454;-73
2023/05/25 01:28:50;;;;;;;31.87;11.50;;;8.20;99.90;;;;;;5032918;28;20449;-74
2023/05/25 01:31:20;;;;;;;25.37;10.77;;;8.20;99.90;;;;;;5041326;28;20462;-73
2023/05/25 01:33:49;;;;;;;23.73;9.60;;;8.10;99.90;;;;;;5039779;28;20461;-74
2023/05/25 01:36:17;;;;;;;22.13;10.07;;;8.10;99.90;;;;;;5036434;28;20961;-74
2023/05/25 01:38:44;;;;;;;23.63;10.60;;;8.10;99.90;;;;;;5037225;28;21012;-73
2023/05/25 01:41:11;;;;;;;21.73;9.60;;;8.10;99.90;;;;;;5032935;28;20493;-73
2023/05/25 01:43:37;;;;;;;32.07;10.40;;;8.10;99.90;;;;;;5032766;28;21004;-74
2023/05/25 01:46:11;;;;;;;22.70;11.57;;;8.10;99.90;;;;;;5042999;28;20499;-73
2023/05/25 01:48:48;;;;;;;31.93;11.10;;;8.10;99.90;;;;;;5050913;28;20465;-73
2023/05/25 01:51:25;;;;;;;26.57;9.80;;;8.00;99.90;;;;;;5047581;28;20469;-73
2023/05/25 01:53:57;;;;;;;24.60;10.40;;;8.00;99.90;;;;;;5040806;28;20452;-73
2023/05/25 01:56:28;;;;;;;19.93;9.57;;;8.00;99.90;;;;;;5032631;28;20450;-73
2023/05/25 01:58:57;;;;;;;23.43;10.57;;;8.00;99.90;;;;;;5034591;28;20466;-73
2023/05/25 02:01:25;;;;;;;33.13;11.10;;;8.00;99.90;;;;;;5036895;28;20493;-73
2023/05/25 02:03:53;;;;;;;30.50;11.20;;;8.00;99.90;;;;;;5032471;28;20453;-73
2023/05/25 02:06:21;;;;;;;22.33;9.90;;;8.00;99.90;;;;;;5032767;28;20449;-73
2023/05/25 02:08:47;;;;;;;21.20;10.30;;;7.90;99.90;;;;;;5032070;28;20450;-73
2023/05/25 02:11:14;;;;;;;30.23;11.60;;;7.90;99.90;;;;;;5032159;28;20529;-73
2023/05/25 02:13:41;;;;;;;28.43;11.00;;;7.90;99.90;;;;;;5032515;28;20516;-73
2023/05/25 02:16:08;;;;;;;31.80;10.43;;;7.90;99.90;;;;;;5035051;28;20460;-73
2023/05/25 02:18:35;;;;;;;27.80;11.07;;;7.90;99.90;;;;;;5032056;28;20453;-73
2023/05/25 02:21:02;;;;;;;26.50;11.57;;;7.80;99.90;;;;;;5032372;28;20561;-74
2023/05/25 02:23:30;;;;;;;31.10;11.97;;;7.90;99.90;;;;;;5034776;28;20454;-73
2023/05/25 02:25:57;;;;;;;22.77;10.87;;;7.90;99.90;;;;;;5032188;28;20508;-73
2023/05/25 02:28:23;;;;;;;31.07;12.23;;;7.80;99.90;;;;;;5031920;28;20458;-73
2023/05/25 02:30:50;;;;;;;28.30;11.17;;;7.80;99.90;;;;;;5032487;28;20882;-73
2023/05/25 02:33:17;;;;;;;30.43;11.83;;;7.80;99.90;;;;;;5039842;28;20450;-73
2023/05/25 02:35:44;;;;;;;20.63;11.30;;;7.80;99.90;;;;;;5032057;28;20490;-77
2023/05/25 02:38:10;;;;;;;29.40;10.90;;;7.80;99.90;;;;;;5031924;28;20450;-73
2023/05/25 02:40:38;;;;;;;23.77;11.93;;;7.80;99.90;;;;;;5036666;28;20954;-73
2023/05/25 02:43:05;;;;;;;26.80;11.10;;;7.80;99.90;;;;;;5039974;28;20488;-73
2023/05/25 02:45:31;;;;;;;28.03;11.40;;;7.80;99.90;;;;;;5034777;28;20456;-73
2023/05/25 02:47:58;;;;;;;29.53;13.23;;;7.80;99.90;;;;;;5042020;28;20482;-73
2023/05/25 02:50:25;;;;;;;25.53;11.23;;;7.80;99.90;;;;;;5038897;28;20462;-73
2023/05/25 02:52:51;;;;;;;30.13;12.00;;;7.80;99.90;;;;;;5033197;28;20485;-73
2023/05/25 02:55:18;;;;;;;35.53;13.00;;;7.80;99.90;;;;;;5031598;28;20872;-73
2023/05/25 02:57:46;;;;;;;32.67;10.70;;;7.80;99.90;;;;;;5035868;28;20454;-73
2023/05/25 03:00:14;;;;;;;27.27;12.50;;;7.80;99.90;;;;;;5035157;28;20958;-73
2023/05/25 03:02:40;;;;;;;26.63;12.10;;;7.70;99.90;;;;;;5031325;28;20496;-73
2023/05/25 03:05:07;;;;;;;27.03;12.47;;;7.70;99.90;;;;;;5031159;28;20942;-73
2023/05/25 03:07:34;;;;;;;31.60;13.20;;;7.70;99.90;;;;;;5035969;28;20442;-73
2023/05/25 03:10:01;;;;;;;30.83;12.30;;;7.80;99.90;;;;;;5031029;28;20450;-73
2023/05/25 03:12:27;;;;;;;22.93;11.30;;;7.70;99.90;;;;;;5044234;28;20480;-73
2023/05/25 03:14:55;;;;;;;22.33;12.37;;;7.80;99.90;;;;;;5036314;28;20520;-73
2023/05/25 03:17:22;;;;;;;31.17;13.47;;;7.80;99.90;;;;;;5031498;28;20520;-73
2023/05/25 03:19:49;;;;;;;30.80;12.57;;;7.70;99.90;;;;;;5038986;28;20449;-73
2023/05/25 03:22:15;;;;;;;34.80;13.50;;;7.70;99.90;;;;;;5031129;28;20492;-73
2023/05/25 03:24:42;;;;;;;21.47;11.50;;;7.70;99.90;;;;;;5046222;28;20453;-73
2023/05/25 03:27:09;;;;;;;42.53;12.40;;;7.70;99.90;;;;;;5032049;28;20454;-73
2023/05/25 03:29:35;;;;;;;27.23;12.33;;;7.70;99.90;;;;;;5032161;28;20457;-73
2023/05/25 03:32:03;;;;;;;36.77;12.67;;;7.60;99.90;;;;;;5030994;28;20466;-73
2023/05/25 03:34:33;;;;;;;35.93;14.27;;;7.70;99.90;;;;;;5036299;28;20445;-73
2023/05/25 03:37:00;;;;;;;29.57;12.73;;;7.70;99.90;;;;;;5039363;28;20461;-73
2023/05/25 03:39:26;;;;;;;30.00;12.87;;;7.60;99.90;;;;;;5030636;28;20458;-73
2023/05/25 03:41:54;;;;;;;28.80;13.13;;;7.60;99.90;;;;;;5030694;28;20489;-73
2023/05/25 03:44:20;;;;;;;27.50;12.50;;;7.70;99.90;;;;;;5038165;28;20496;-73
2023/05/25 03:46:47;;;;;;;35.47;13.33;;;7.70;99.90;;;;;;5030987;28;20477;-73
2023/05/25 03:49:15;;;;;;;35.37;13.43;;;7.60;99.90;;;;;;5038272;28;20503;-73
2023/05/25 03:51:42;;;;;;;27.53;13.00;;;7.60;99.90;;;;;;5030718;28;20527;-73
2023/05/25 03:54:09;;;;;;;23.73;12.70;;;7.60;99.90;;;;;;5038865;28;20502;-73
2023/05/25 03:56:35;;;;;;;32.23;12.60;;;7.60;99.90;;;;;;5034054;28;20455;-73
2023/05/25 03:59:02;;;;;;;31.17;13.53;;;7.60;99.90;;;;;;5032380;28;20461;-73
2023/05/25 04:01:29;;;;;;;31.00;14.17;;;7.60;99.90;;;;;;5030692;28;20473;-73
2023/05/25 04:03:55;;;;;;;32.33;13.40;;;7.70;99.90;;;;;;5030499;28;20485;-73
2023/05/25 04:06:24;;;;;;;32.20;13.03;;;7.70;99.90;;;;;;5032322;28;20516;-73
2023/05/25 04:08:51;;;;;;;36.70;14.43;;;7.70;99.90;;;;;;5034027;28;20450;-73
2023/05/25 04:11:18;;;;;;;30.30;13.57;;;7.70;99.90;;;;;;5038371;28;20475;-73
2023/05/25 04:13:45;;;;;;;31.23;14.10;;;7.70;99.90;;;;;;5041967;28;20449;-73
2023/05/25 04:16:12;;;;;;;44.40;14.30;;;7.70;99.90;;;;;;5042015;28;20550;-73
2023/05/25 04:18:38;;;;;;;37.30;14.47;;;7.80;99.90;;;;;;5035676;28;20504;-73
2023/05/25 04:21:05;;;;;;;32.90;14.67;;;7.70;99.90;;;;;;5030197;28;20888;-73
2023/05/25 04:23:33;;;;;;;37.60;13.90;;;7.70;99.90;;;;;;5041969;28;20481;-73
2023/05/25 04:26:00;;;;;;;36.30;14.00;;;7.70;99.90;;;;;;5039018;28;20562;-73
2023/05/25 04:28:27;;;;;;;28.57;13.13;;;7.80;99.90;;;;;;5036984;28;20499;-73
2023/05/25 04:30:55;;;;;;;37.97;14.70;;;7.80;99.90;;;;;;5037426;28;20561;-73
2023/05/25 04:33:22;;;;;;;40.10;14.10;;;7.80;99.90;;;;;;5036878;28;20489;-73
2023/05/25 04:35:49;;;;;;;34.37;14.63;;;7.80;99.90;;;;;;5037043;28;20454;-73
2023/05/25 04:38:17;;;;;;;37.50;14.83;;;7.90;99.90;;;;;;5044624;28;20495;-73
2023/05/25 04:40:46;;;;;;;41.90;14.10;;;7.90;99.90;;;;;;5036514;28;20950;-73
2023/05/25 04:43:16;;;;;;;34.17;14.53;;;8.00;99.90;;;;;;5039120;28;20489;-73
2023/05/25 04:45:44;;;;;;;38.07;14.70;;;8.00;99.90;;;;;;5055087;28;20518;-73
2023/05/25 04:48:11;;;;;;;33.57;14.10;;;8.10;99.90;;;;;;5055977;28;20471;-73
2023/05/25 04:50:39;;;;;;;39.57;16.07;;;8.10;99.90;;;;;;5047873;28;20471;-73
2023/05/25 04:53:06;;;;;;;34.20;16.60;;;8.20;99.90;;;;;;5045783;28;20952;-73
2023/05/25 04:55:32;;;;;;;35.00;14.87;;;8.30;99.90;;;;;;5036544;28;20460;-73
2023/05/25 04:58:00;;;;;;;34.67;14.03;;;8.40;99.90;;;;;;5036263;28;20911;-73
2023/05/25 05:00:27;;;;;;;37.40;14.93;;;8.50;99.90;;;;;;5036329;28;20515;-73
2023/05/25 05:02:55;;;;;;;33.17;14.40;;;8.60;99.90;;;;;;5036449;28;20496;-73
2023/05/25 05:05:21;;;;;;;44.40;16.93;;;8.80;99.90;;;;;;5040811;28;20460;-73
2023/05/25 05:07:48;;;;;;;33.00;16.30;;;8.90;99.90;;;;;;5040716;28;20479;-73
2023/05/25 05:10:16;;;;;;;34.20;16.27;;;9.00;99.90;;;;;;5044351;28;20476;-72
2023/05/25 05:12:43;;;;;;;36.70;15.13;;;9.10;99.90;;;;;;5036044;28;20513;-73
2023/05/25 05:15:11;;;;;;;32.43;14.90;;;9.20;99.90;;;;;;5036420;28;20934;-73
2023/05/25 05:17:38;;;;;;;33.37;15.27;;;9.40;99.90;;;;;;5036601;28;20864;-73
2023/05/25 05:20:07;;;;;;;31.33;15.20;;;9.50;99.90;;;;;;5040278;28;21155;-73
2023/05/25 05:22:34;;;;;;;47.70;14.90;;;9.60;99.90;;;;;;5036049;28;21019;-74
2023/05/25 05:25:00;;;;;;;35.63;15.20;;;9.80;99.90;;;;;;5036471;28;20540;-73
2023/05/25 05:27:27;;;;;;;30.03;13.60;;;9.80;99.90;;;;;;5036239;28;20481;-74
2023/05/25 05:29:54;;;;;;;32.67;14.50;;;10.00;99.90;;;;;;5044040;28;20462;-73
2023/05/25 05:32:22;;;;;;;42.73;16.10;;;10.00;99.90;;;;;;5036327;28;20469;-73
2023/05/25 05:34:48;;;;;;;31.20;13.17;;;10.20;99.90;;;;;;5037966;28;20503;-73
2023/05/25 05:37:15;;;;;;;32.93;15.03;;;10.30;99.90;;;;;;5033328;28;20449;-74
2023/05/25 05:39:42;;;;;;;31.60;14.43;;;10.50;99.90;;;;;;5042428;28;21005;-70
2023/05/25 05:42:08;;;;;;;23.47;11.13;;;10.60;99.90;;;;;;5044379;28;20469;-70
2023/05/25 05:44:35;;;;;;;29.97;13.30;;;10.90;99.90;;;;;;5046400;28;20491;-70
2023/05/25 05:47:02;;;;;;;26.27;12.50;;;11.20;99.90;;;;;;5038276;28;20600;-70
2023/05/25 05:49:30;;;;;;;28.27;13.80;;;11.50;99.90;;;;;;5047710;28;20457;-70
2023/05/25 05:51:58;;;;;;;34.90;13.60;;;11.70;99.90;;;;;;5034555;28;20469;-70
2023/05/25 05:54:26;;;;;;;23.70;13.10;;;11.90;99.90;;;;;;5034125;28;20453;-70
2023/05/25 05:56:53;;;;;;;27.70;12.83;;;12.00;99.90;;;;;;5040766;28;20465;-70
2023/05/25 05:59:21;;;;;;;31.17;13.70;;;12.20;99.90;;;;;;5032626;28;20548;-70
2023/05/25 06:01:48;;;;;;;24.33;12.57;;;12.30;99.90;;;;;;5032882;28;20895;-70
2023/05/25 06:04:15;;;;;;;26.77;13.57;;;12.50;99.90;;;;;;5033865;28;20481;-71
2023/05/25 06:06:44;;;;;;;28.97;13.80;;;12.60;99.90;;;;;;5038022;28;20523;-72
2023/05/25 06:09:11;;;;;;;35.07;13.67;;;12.80;99.90;;;;;;5032166;28;20922;-72
2023/05/25 06:11:38;;;;;;;27.43;13.20;;;12.90;99.90;;;;;;5040694;28;20560;-72
2023/05/25 06:14:05;;;;;;;28.80;12.50;;;13.00;99.90;;;;;;5033012;28;20980;-73
2023/05/25 06:16:32;;;;;;;27.20;12.10;;;13.00;99.90;;;;;;5033636;28;20458;-72
2023/05/25 06:18:58;;;;;;;32.63;13.10;;;13.10;99.90;;;;;;5032600;28;20875;-72
2023/05/25 06:21:25;;;;;;;21.53;12.70;;;13.10;99.90;;;;;;5039076;28;20486;-72
2023/05/25 06:23:53;;;;;;;26.80;13.37;;;13.10;99.90;;;;;;5040139;28;20499;-72
2023/05/25 06:26:20;;;;;;;30.60;14.30;;;13.00;99.90;;;;;;5039879;28;20511;-72
2023/05/25 06:28:48;;;;;;;26.37;12.67;;;13.10;99.90;;;;;;5032196;28;20461;-72
2023/05/25 06:31:15;;;;;;;25.90;13.67;;;13.20;99.90;;;;;;5035776;28;20836;-72
2023/05/25 06:33:41;;;;;;;26.33;12.67;;;13.30;99.90;;;;;;5037609;28;20449;-71
2023/05/25 06:36:09;;;;;;;30.20;13.93;;;13.50;99.90;;;;;;5031725;28;20508;-72
2023/05/25 06:38:36;;;;;;;30.50;14.10;;;13.40;99.90;;;;;;5037660;28;20481;-72
2023/05/25 06:41:06;;;;;;;31.23;12.90;;;13.40;99.90;;;;;;5034590;28;20891;-72
2023/05/25 06:43:32;;;;;;;28.07;12.40;;;13.60;99.90;;;;;;5034687;28;20477;-72
2023/05/25 06:45:59;;;;;;;26.67;12.90;;;13.70;99.90;;;;;;5036933;28;20525;-72
2023/05/25 06:48:26;;;;;;;32.27;13.40;;;13.90;99.90;;;;;;5046749;28;20450;-72
2023/05/25 06:50:53;;;;;;;24.03;11.70;;;14.20;99.90;;;;;;5031700;28;20850;-72
2023/05/25 06:53:19;;;;;;;20.60;10.57;;;14.40;99.90;;;;;;5038173;28;21171;-72
2023/05/25 06:55:46;;;;;;;19.17;10.20;;;14.50;99.90;;;;;;5034080;28;20446;-71
2023/05/25 06:58:14;;;;;;;21.47;10.17;;;14.60;99.90;;;;;;5039405;28;20453;-70
2023/05/25 07:00:41;;;;;;;21.27;10.77;;;14.80;99.90;;;;;;5037726;28;20536;-71
2023/05/25 07:03:07;;;;;;;23.57;10.33;;;14.90;99.90;;;;;;5034243;28;20866;-71
2023/05/25 07:05:34;;;;;;;21.90;9.53;;;15.10;99.90;;;;;;5050609;28;20510;-71
2023/05/25 07:08:00;;;;;;;29.37;8.97;;;15.30;99.90;;;;;;5039023;28;20420;-71
2023/05/25 07:10:27;;;;;;;21.03;9.53;;;15.50;99.90;;;;;;5031379;28;20457;-71
2023/05/25 07:12:54;;;;;;;15.20;9.20;;;15.50;99.90;;;;;;5038571;28;20474;-71
2023/05/25 07:15:22;;;;;;;16.67;9.07;;;15.40;99.90;;;;;;5031695;28;20536;-71
2023/05/25 07:17:49;;;;;;;17.43;8.77;;;15.50;99.90;;;;;;5039498;28;20481;-71
2023/05/25 07:20:16;;;;;;;12.03;8.53;;;15.60;99.90;;;;;;5038899;28;20529;-71
2023/05/25 07:22:43;;;;;;;20.23;8.47;;;15.70;99.90;;;;;;5030975;28;20461;-71
2023/05/25 07:25:10;;;;;;;20.43;8.60;;;15.70;99.90;;;;;;5037982;28;20540;-71
2023/05/25 07:27:36;;;;;;;19.10;10.17;;;15.90;99.90;;;;;;5030878;28;20461;-72
2023/05/25 07:30:03;;;;;;;13.37;8.33;;;16.00;99.90;;;;;;5039365;28;20457;-71
2023/05/25 07:32:31;;;;;;;17.50;9.20;;;16.00;99.90;;;;;;5037595;28;21038;-71
2023/05/25 07:34:58;;;;;;;18.17;8.17;;;16.00;99.90;;;;;;5033412;28;21000;-71
2023/05/25 07:37:24;;;;;;;26.00;9.13;;;16.20;99.90;;;;;;5039785;28;20431;-71
2023/05/25 07:39:51;;;;;;;12.57;8.60;;;16.30;99.90;;;;;;5040231;28;20454;-71
2023/05/25 07:42:19;;;;;;;16.93;8.10;;;16.30;99.90;;;;;;5042674;28;20898;-71
2023/05/25 07:44:46;;;;;;;16.00;8.10;;;16.50;99.90;;;;;;5036135;28;20849;-71
2023/05/25 07:47:13;;;;;;;15.80;8.53;;;16.60;99.90;;;;;;5038196;28;20450;-71
2023/05/25 07:49:41;;;;;;;23.33;9.13;;;16.60;99.90;;;;;;5035939;28;20482;-71
2023/05/25 07:52:07;;;;;;;23.67;8.97;;;16.40;99.90;;;;;;5038291;28;20890;-71
2023/05/25 07:54:38;;;;;;;15.20;9.17;;;16.20;99.90;;;;;;5030322;28;20454;-71
2023/05/25 07:57:05;;;;;;;16.03;8.80;;;16.40;99.90;;;;;;5029368;28;20462;-72
2023/05/25 07:59:32;;;;;;;16.70;8.80;;;16.60;99.90;;;;;;5034970;28;20516;-71
2023/05/25 08:01:58;;;;;;;13.00;9.03;;;16.50;99.90;;;;;;5030789;28;20641;-71
2023/05/25 08:04:25;;;;;;;21.37;8.63;;;16.40;99.90;;;;;;5037741;28;20508;-71
2023/05/25 08:06:53;;;;;;;16.07;7.50;;;16.60;99.90;;;;;;5032975;28;20508;-71
2023/05/25 08:09:20;;;;;;;13.83;8.43;;;16.80;99.90;;;;;;5034309;28;20511;-71
2023/05/25 08:11:46;;;;;;;18.40;8.73;;;17.00;99.90;;;;;;5042822;28;20853;-70
2023/05/25 08:14:13;;;;;;;12.97;7.60;;;17.20;99.90;;;;;;5034024;28;20570;-70
2023/05/25 08:16:40;;;;;;;16.13;7.40;;;17.30;99.90;;;;;;5033291;28;20453;-70
2023/05/25 08:19:06;;;;;;;15.53;7.13;;;17.40;99.90;;;;;;5038266;28;21004;-71
2023/05/25 08:21:36;;;;;;;14.37;7.00;;;17.60;99.90;;;;;;5037604;28;20472;-71
2023/05/25 08:24:07;;;;;;;13.80;7.57;;;17.60;99.90;;;;;;5044479;28;20481;-70
2023/05/25 08:26:35;;;;;;;14.97;7.43;;;17.80;99.90;;;;;;5042615;28;20449;-71
2023/05/25 08:29:02;;;;;;;11.87;6.73;;;18.20;99.90;;;;;;5043187;28;21049;-71
2023/05/25 08:31:29;;;;;;;11.90;6.53;;;18.40;99.90;;;;;;5030281;28;20475;-71
2023/05/25 08:33:56;;;;;;;12.57;7.30;;;18.60;99.90;;;;;;5029747;28;20453;-70
2023/05/25 08:36:22;;;;;;;16.63;8.30;;;18.80;99.90;;;;;;5029710;28;20478;-71
2023/05/25 08:38:50;;;;;;;14.53;6.83;;;18.70;99.90;;;;;;5037965;28;20495;-72
2023/05/25 08:41:20;;;;;;;12.83;6.60;;;18.70;99.90;;;;;;5044090;28;20454;-71
2023/05/25 08:43:47;;;;;;;15.23;7.27;;;18.70;99.90;;;;;;5030192;28;20484;-71
2023/05/25 08:46:14;;;;;;;11.30;6.03;;;18.70;99.90;;;;;;5031183;28;20439;-71
2023/05/25 08:48:42;;;;;;;16.90;7.67;;;18.70;99.90;;;;;;5041984;28;20970;-72
2023/05/25 08:51:10;;;;;;;16.53;7.13;;;18.70;99.90;;;;;;5038744;28;20476;-71
2023/05/25 08:53:38;;;;;;;14.93;6.90;;;18.80;99.90;;;;;;5035951;28;20427;-71
2023/05/25 08:56:10;;;;;;;16.20;7.63;;;18.70;99.90;;;;;;5031843;28;20432;-71
2023/05/25 08:58:45;;;;;;;16.40;7.50;;;18.60;99.90;;;;;;5035332;28;20432;-71
2023/05/25 09:01:18;;;;;;;10.27;6.47;;;18.70;99.90;;;;;;5039527;28;20454;-72
2023/05/25 09:03:45;;;;;;;14.37;7.50;;;18.70;99.90;;;;;;5029224;28;20504;-71
2023/05/25 09:06:12;;;;;;;14.40;8.00;;;18.70;99.90;;;;;;5038124;28;20800;-71
2023/05/25 09:08:39;;;;;;;15.43;7.53;;;18.90;99.90;;;;;;5030573;28;20432;-71
2023/05/25 09:11:07;;;;;;;14.07;7.60;;;19.30;99.90;;;;;;5032787;28;20951;-71
2023/05/25 09:13:34;;;;;;;14.17;7.50;;;19.40;99.90;;;;;;5033091;28;20466;-72
2023/05/25 09:16:02;;;;;;;17.10;7.00;;;19.50;99.90;;;;;;5041380;28;20521;-72
2023/05/25 09:18:28;;;;;;;16.20;7.40;;;19.50;99.90;;;;;;5043967;28;20421;-72
2023/05/25 09:20:55;;;;;;;15.07;6.23;;;19.60;99.90;;;;;;5035703;28;20490;-72
2023/05/25 09:23:22;;;;;;;11.93;5.90;;;19.60;99.90;;;;;;5034311;28;20452;-72
2023/05/25 09:25:50;;;;;;;9.50;6.03;;;19.70;99.90;;;;;;5032430;28;21003;-72
2023/05/25 09:28:18;;;;;;;9.00;5.70;;;19.80;99.90;;;;;;5034416;28;20506;-72
2023/05/25 09:30:45;;;;;;;8.83;5.80;;;19.90;99.90;;;;;;5036622;28;20458;-71
2023/05/25 09:33:16;;;;;;;11.03;5.80;;;20.00;99.90;;;;;;5040754;28;20451;-71
2023/05/25 09:35:43;;;;;;;11.40;5.87;;;20.00;99.90;;;;;;5032568;28;20444;-71
2023/05/25 09:38:13;;;;;;;12.63;6.70;;;20.20;99.90;;;;;;5040295;28;20415;-72
2023/05/25 09:40:40;;;;;;;10.93;6.10;;;20.50;99.90;;;;;;5033465;28;20445;-72
2023/05/25 09:43:07;;;;;;;15.40;7.37;;;20.80;99.90;;;;;;5040715;28;20419;-72
2023/05/25 09:45:34;;;;;;;12.37;5.70;;;20.70;99.90;;;;;;5040431;28;20459;-72
2023/05/25 09:48:01;;;;;;;8.70;5.50;;;20.60;99.90;;;;;;5040221;28;20453;-72
2023/05/25 09:50:31;;;;;;;11.23;5.40;;;20.50;99.90;;;;;;5031558;28;20815;-71
2023/05/25 09:53:00;;;;;;;9.00;4.80;;;20.80;99.90;;;;;;5032199;28;20452;-72
2023/05/25 09:55:28;;;;;;;10.43;5.93;;;21.00;99.90;;;;;;5032599;28;20457;-73
2023/05/25 09:57:55;;;;;;;8.67;5.10;;;21.20;99.90;;;;;;5040443;28;20462;-72
2023/05/25 10:00:22;;;;;;;8.80;4.77;;;21.30;99.90;;;;;;5036598;28;20424;-72
2023/05/25 10:02:49;;;;;;;10.90;5.57;;;21.10;99.90;;;;;;5031811;28;20977;-72
2023/05/25 10:05:16;;;;;;;10.80;4.83;;;21.10;99.90;;;;;;5040760;28;20475;-71
2023/05/25 10:07:45;;;;;;;8.53;5.27;;;21.00;99.90;;;;;;5037597;28;20445;-71
2023/05/25 10:10:15;;;;;;;15.07;6.10;;;21.10;99.90;;;;;;5032192;28;20456;-72
2023/05/25 10:12:43;;;;;;;11.60;6.50;;;21.40;99.90;;;;;;5039071;28;20481;-71
2023/05/25 10:15:12;;;;;;;10.13;6.20;;;21.30;99.90;;;;;;5033442;28;20454;-72
2023/05/25 10:17:44;;;;;;;11.00;6.00;;;21.40;99.90;;;;;;5032138;28;20450;-72
2023/05/25 10:20:13;;;;;;;16.73;6.40;;;21.50;99.90;;;;;;5037686;28;20467;-73
2023/05/25 10:22:47;;;;;;;12.00;5.80;;;21.60;99.90;;;;;;5037894;28;20531;-72
2023/05/25 10:25:19;;;;;;;10.10;5.97;;;22.00;99.90;;;;;;5036392;28;20488;-72
2023/05/25 10:27:48;;;;;;;11.10;5.43;;;22.30;99.90;;;;;;5036319;28;20485;-72
2023/05/25 10:30:15;;;;;;;12.53;5.80;;;22.30;99.90;;;;;;5034899;28;20457;-72
2023/05/25 10:32:44;;;;;;;11.00;5.70;;;22.10;99.90;;;;;;5045082;28;20479;-72
2023/05/25 10:35:12;;;;;;;9.43;5.50;;;21.90;99.90;;;;;;5033607;28;20495;-72
2023/05/25 10:37:39;;;;;;;7.67;5.20;;;21.80;99.90;;;;;;5037273;28;20484;-73
2023/05/25 10:40:08;;;;;;;8.47;5.07;;;21.80;99.90;;;;;;5032801;28;20545;-73
2023/05/25 10:42:36;;;;;;;14.03;5.60;;;21.60;99.90;;;;;;5035083;28;20469;-73
2023/05/25 10:45:04;;;;;;;11.43;6.33;;;21.60;99.90;;;;;;5031229;28;20491;-73
2023/05/25 10:47:31;;;;;;;7.73;5.97;;;22.00;99.90;;;;;;5042100;28;20460;-73
2023/05/25 10:50:01;;;;;;;8.87;6.23;;;22.20;99.90;;;;;;5037701;28;20452;-73
2023/05/25 10:52:29;;;;;;;11.73;6.57;;;22.10;99.90;;;;;;5032142;28;20512;-72
2023/05/25 10:54:56;;;;;;;13.57;6.50;;;22.10;99.90;;;;;;5042675;28;20539;-72
2023/05/25 10:57:25;;;;;;;11.30;5.87;;;22.00;99.90;;;;;;5036537;28;20545;-72
2023/05/25 10:59:58;;;;;;;12.93;6.80;;;21.90;99.90;;;;;;5033406;28;20551;-72
2023/05/25 11:02:27;;;;;;;13.43;6.40;;;21.80;99.90;;;;;;5034658;28;21237;-72
2023/05/25 11:05:32;;;;;;;13.13;6.40;;;22.10;99.90;;;;;;5034129;28;20493;-72
2023/05/25 11:08:00;;;;;;;12.10;7.20;;;21.90;99.90;;;;;;5032748;28;20459;-72
2023/05/25 11:10:55;;;;;;;14.33;7.00;;;22.00;99.90;;;;;;5035507;28;20503;-73
2023/05/25 11:13:32;;;;;;;11.10;6.63;;;22.10;99.90;;;;;;5039479;28;20450;-72
2023/05/25 11:16:20;;;;;;;12.73;6.07;;;22.40;99.90;;;;;;5030737;28;20843;-71
2023/05/25 11:18:51;;;;;;;7.03;5.23;;;22.50;99.90;;;;;;5029723;28;20867;-73
2023/05/25 11:21:22;;;;;;;8.63;5.30;;;22.60;99.90;;;;;;5032004;28;21060;-73
2023/05/25 11:23:53;;;;;;;10.10;5.73;;;22.60;99.90;;;;;;5033684;28;20457;-73
2023/05/25 11:26:21;;;;;;;10.33;5.63;;;23.10;99.90;;;;;;5038612;28;20600;-73
2023/05/25 11:28:51;;;;;;;11.70;6.37;;;23.00;99.90;;;;;;5034923;28;20453;-73
2023/05/25 11:31:22;;;;;;;8.67;5.73;;;23.10;99.90;;;;;;5039601;28;21001;-72
2023/05/25 11:33:50;;;;;;;13.57;6.13;;;23.20;99.90;;;;;;5036510;28;20461;-72
2023/05/25 11:36:19;;;;;;;18.13;6.30;;;23.20;99.90;;;;;;5038575;28;20952;-73
2023/05/25 11:38:45;;;;;;;18.00;6.30;;;23.60;99.90;;;;;;5037730;28;20452;-72
2023/05/25 11:41:17;;;;;;;14.00;6.07;;;23.50;99.90;;;;;;5033587;28;20891;-72
2023/05/25 11:43:46;;;;;;;13.63;7.27;;;23.40;99.90;;;;;;5030786;28;20483;-72
2023/05/25 11:46:14;;;;;;;19.40;6.87;;;23.50;99.90;;;;;;5034845;28;20490;-72
2023/05/25 11:48:46;;;;;;;9.93;5.70;;;23.50;99.90;;;;;;5038212;28;20452;-71
2023/05/25 11:51:13;;;;;;;14.40;5.50;;;23.70;99.90;;;;;;5031396;28;20851;-72
2023/05/25 11:53:44;;;;;;;11.67;5.27;;;24.00;99.90;;;;;;5031228;28;20446;-72
2023/05/25 11:56:11;;;;;;;10.40;5.30;;;23.90;99.90;;;;;;5030199;28;20462;-72
2023/05/25 11:58:38;;;;;;;16.10;6.70;;;24.00;99.90;;;;;;5030299;28;20946;-71
2023/05/25 12:01:17;;;;;;;14.50;5.33;;;24.00;99.90;;;;;;5030397;28;20474;-71
2023/05/25 12:03:44;;;;;;;12.90;5.07;;;23.90;99.90;;;;;;5040991;28;20544;-72
2023/05/25 12:06:25;;;;;;;8.40;5.10;;;24.10;99.90;;;;;;5035560;28;20484;-71
2023/05/25 12:08:52;;;;;;;10.07;5.43;;;24.30;99.90;;;;;;5030110;28;20457;-71
2023/05/25 12:11:19;;;;;;;14.80;6.00;;;24.30;99.90;;;;;;5036037;28;20477;-71
2023/05/25 12:13:46;;;;;;;9.83;5.47;;;24.20;99.90;;;;;;5031328;28;20454;-71
2023/05/25 12:16:14;;;;;;;13.00;4.50;;;24.10;99.90;;;;;;5032590;28;20889;-71
2023/05/25 12:18:41;;;;;;;12.13;6.60;;;24.00;99.90;;;;;;5041403;28;20456;-71
2023/05/25 12:21:09;;;;;;;8.07;5.37;;;24.00;99.90;;;;;;5031692;28;20476;-71
2023/05/25 12:23:36;;;;;;;9.40;5.80;;;24.30;99.90;;;;;;5033237;28;20468;-70
2023/05/25 12:26:08;;;;;;;9.70;5.57;;;24.60;99.90;;;;;;5040382;28;20484;-71
2023/05/25 12:28:35;;;;;;;10.97;6.03;;;24.60;99.90;;;;;;5030277;28;20446;-71
2023/05/25 12:31:21;;;;;;;7.40;5.00;;;24.50;99.90;;;;;;5034055;28;20473;-72
2023/05/25 12:34:02;;;;;;;15.43;6.37;;;24.80;99.90;;;;;;5036911;28;20514;-71
2023/05/25 12:36:40;;;;;;;10.40;6.13;;;25.00;99.90;;;;;;5030079;28;20991;-71
2023/05/25 12:39:08;;;;;;;15.47;6.33;;;25.20;99.90;;;;;;5030175;28;20506;-71
2023/05/25 12:41:46;;;;;;;10.30;5.90;;;25.30;99.90;;;;;;5031887;28;20500;-71
2023/05/25 12:44:21;;;;;;;9.30;5.80;;;25.10;99.90;;;;;;5049003;28;20879;-72